Terminal Aerodrome Forecast
Issued by NWS Denver/Boulder, CO

Home | Current Version | Previous Version | Text Only | Print | Product List | Glossary On
Versions: 1 2 3 4 5 6 7 8 9 10 11 12 13 14 15 16 17 18 19 20 21 22 23 24 25 26 27 28 29 30 31 32 33 34 35 36 37 38 39 40 41 42 43 44 45 46 47 48 49 50
773
FTUS45 KBOU 201404 AAA
TAFDEN
TAF AMD
KDEN 201404Z 2014/2118 14018G27KT P6SM FEW100
     FM201700 16014G22KT P6SM FEW220
     FM202100 18014G23KT P6SM FEW120 SCT220
     FM210100 18012KT P6SM FEW140 SCT220
     FM210700 21011KT P6SM FEW220
     FM211400 24006KT P6SM FEW220=

USA.gov is the U.S. government's official web portal to all federal, state and local government web resources and services.